Time;durP1;ratioP1;P1;durP2;ratioP2;P2;SDS_P1;SDS_P2;PMS_P1;PMS_P2;Temp;Humidity;BMP_temperature;BMP_pressure;BME280_temperature;BME280_humidity;BME280_pressure;Samples;Min_cycle;Max_cycle;Signal;HPM_P1;HPM_P2
2022/04/16 00:01:24;;;;;;;2.80;2.53;;;12.20;59.90;;;;;;5070648;28;20424;-39
2022/04/16 00:03:49;;;;;;;2.90;2.37;;;12.10;60.00;;;;;;5068954;28;20490;-40
2022/04/16 00:06:15;;;;;;;4.00;3.27;;;12.10;60.30;;;;;;5070046;28;20206;-40
2022/04/16 00:08:41;;;;;;;2.50;2.30;;;12.10;60.70;;;;;;5068078;28;20179;-40
2022/04/16 00:11:07;;;;;;;2.70;2.50;;;12.10;60.80;;;;;;5067264;28;20217;-38
2022/04/16 00:13:33;;;;;;;3.23;2.93;;;12.00;61.20;;;;;;5064748;28;20443;-40
2022/04/16 00:15:59;;;;;;;2.87;2.63;;;12.00;61.60;;;;;;5068512;28;20456;-39
2022/04/16 00:18:25;;;;;;;2.90;2.70;;;11.90;62.00;;;;;;5065119;28;20526;-39
2022/04/16 00:20:54;;;;;;;3.40;2.80;;;11.90;62.40;;;;;;5068015;28;20208;-39
2022/04/16 00:23:20;;;;;;;2.77;2.53;;;11.90;62.80;;;;;;5065979;28;20430;-39
2022/04/16 00:25:49;;;;;;;2.70;2.50;;;11.90;63.10;;;;;;5070375;28;20511;-41
2022/04/16 00:28:15;;;;;;;2.83;2.60;;;11.80;63.20;;;;;;5066912;28;20515;-41
2022/04/16 00:30:41;;;;;;;3.20;2.90;;;11.80;63.70;;;;;;5066620;28;20427;-39
2022/04/16 00:33:07;;;;;;;2.80;2.60;;;11.70;64.00;;;;;;5063633;28;20436;-38
2022/04/16 00:35:34;;;;;;;3.20;2.60;;;11.70;64.30;;;;;;5068641;28;20430;-39
2022/04/16 00:37:59;;;;;;;3.97;3.17;;;11.60;64.60;;;;;;5067400;28;20420;-39
2022/04/16 00:40:25;;;;;;;2.77;2.27;;;11.60;65.00;;;;;;5067604;28;20656;-40
2022/04/16 00:42:51;;;;;;;2.57;2.37;;;11.60;65.20;;;;;;5065759;28;20201;-39
2022/04/16 00:45:17;;;;;;;2.53;2.33;;;11.60;65.30;;;;;;5068138;28;20454;-47
2022/04/16 00:47:45;;;;;;;2.90;2.60;;;11.50;65.50;;;;;;5068062;28;20513;-47
2022/04/16 00:50:11;;;;;;;4.50;2.60;;;11.50;65.70;;;;;;5068087;28;20742;-46
2022/04/16 00:52:38;;;;;;;3.07;2.80;;;11.50;65.90;;;;;;5068230;28;20447;-47
2022/04/16 00:55:06;;;;;;;3.00;2.47;;;11.50;66.00;;;;;;5067261;28;20858;-47
2022/04/16 00:57:32;;;;;;;2.63;2.40;;;11.40;66.10;;;;;;5065949;28;20866;-47
2022/04/16 00:59:59;;;;;;;3.10;2.80;;;11.40;66.20;;;;;;5069676;28;20855;-47
2022/04/16 01:02:25;;;;;;;3.67;2.50;;;11.40;66.30;;;;;;5066924;28;20757;-47
2022/04/16 01:04:50;;;;;;;2.63;2.23;;;11.30;66.50;;;;;;5068307;28;20438;-47
2022/04/16 01:07:24;;;;;;;2.70;2.40;;;11.30;66.50;;;;;;5067821;28;20632;-47
2022/04/16 01:09:50;;;;;;;4.10;2.07;;;11.30;66.70;;;;;;5068143;28;20649;-47
2022/04/16 01:12:16;;;;;;;3.63;2.73;;;11.20;66.70;;;;;;5068213;28;20432;-47
2022/04/16 01:14:41;;;;;;;2.70;2.50;;;11.20;66.70;;;;;;5068237;28;20563;-47
2022/04/16 01:17:09;;;;;;;2.40;2.17;;;11.20;66.90;;;;;;5067775;28;20329;-47
2022/04/16 01:19:40;;;;;;;1.90;1.70;;;11.20;66.90;;;;;;5069961;28;20449;-47
2022/04/16 01:22:06;;;;;;;2.13;1.93;;;11.10;67.10;;;;;;5068105;28;20523;-46
2022/04/16 01:24:34;;;;;;;5.20;2.50;;;11.10;67.40;;;;;;5066756;28;20769;-47
2022/04/16 01:27:00;;;;;;;2.80;2.60;;;11.10;67.40;;;;;;5067023;28;20243;-47
2022/04/16 01:29:26;;;;;;;3.00;2.50;;;11.00;67.50;;;;;;5066679;28;20421;-47
2022/04/16 01:31:53;;;;;;;2.40;2.20;;;11.00;67.60;;;;;;5067278;28;20482;-47
2022/04/16 01:34:19;;;;;;;2.60;2.23;;;11.00;67.70;;;;;;5067161;28;20707;-47
2022/04/16 01:36:46;;;;;;;2.40;2.20;;;11.00;67.90;;;;;;5066006;28;20862;-47
2022/04/16 01:39:12;;;;;;;2.37;2.17;;;10.90;67.90;;;;;;5069220;28;20424;-47
2022/04/16 01:41:37;;;;;;;2.37;2.17;;;10.90;68.50;;;;;;5067932;28;20516;-47
2022/04/16 01:44:03;;;;;;;2.50;2.30;;;10.90;69.00;;;;;;5069247;28;20432;-47
2022/04/16 01:46:29;;;;;;;3.73;2.60;;;10.90;69.40;;;;;;5066644;28;20551;-47
2022/04/16 01:48:55;;;;;;;2.77;2.10;;;10.80;69.40;;;;;;5067390;28;20426;-47
2022/04/16 01:51:24;;;;;;;2.80;2.20;;;10.80;69.60;;;;;;5067252;28;20183;-47
2022/04/16 01:53:50;;;;;;;3.20;2.77;;;10.80;69.90;;;;;;5067838;28;20525;-47
2022/04/16 01:56:16;;;;;;;3.03;2.73;;;10.80;70.00;;;;;;5068191;28;20427;-47
2022/04/16 01:58:43;;;;;;;3.47;3.17;;;10.70;70.10;;;;;;5068204;28;20493;-47
2022/04/16 02:01:09;;;;;;;3.00;2.60;;;10.70;70.20;;;;;;5068355;28;20431;-47
2022/04/16 02:03:36;;;;;;;3.50;3.20;;;10.70;70.00;;;;;;5068133;28;20431;-46
2022/04/16 02:06:05;;;;;;;2.70;2.50;;;10.70;70.20;;;;;;5068049;28;20442;-47
2022/04/16 02:08:30;;;;;;;2.83;2.50;;;10.70;70.30;;;;;;5068022;28;20442;-47
2022/04/16 02:10:56;;;;;;;2.67;2.47;;;10.70;70.40;;;;;;5067979;28;20436;-47
2022/04/16 02:13:22;;;;;;;2.43;2.17;;;10.60;70.60;;;;;;5066715;28;20191;-46
2022/04/16 02:15:48;;;;;;;2.33;2.10;;;10.60;70.90;;;;;;5068136;28;20216;-46
2022/04/16 02:18:13;;;;;;;3.30;2.93;;;10.60;71.40;;;;;;5068444;28;20434;-47
2022/04/16 02:20:41;;;;;;;2.60;2.40;;;10.60;71.70;;;;;;5067610;28;20200;-47
2022/04/16 02:23:08;;;;;;;3.43;3.00;;;10.60;72.50;;;;;;5065582;28;20635;-47
2022/04/16 02:25:34;;;;;;;2.87;2.50;;;10.60;72.80;;;;;;5068645;28;20435;-46
2022/04/16 02:27:59;;;;;;;3.17;2.83;;;10.60;73.30;;;;;;5066901;28;20517;-47
2022/04/16 02:30:25;;;;;;;2.57;2.03;;;10.70;73.50;;;;;;5065902;28;20443;-47
2022/04/16 02:32:54;;;;;;;2.57;2.37;;;10.70;73.40;;;;;;5064282;28;20181;-47
2022/04/16 02:35:21;;;;;;;3.20;2.80;;;10.70;73.30;;;;;;5065082;28;20185;-47
2022/04/16 02:37:47;;;;;;;2.30;2.10;;;10.70;73.10;;;;;;5064858;28;20848;-47
2022/04/16 02:40:13;;;;;;;3.27;2.97;;;10.70;73.30;;;;;;5065578;28;20435;-47
2022/04/16 02:42:40;;;;;;;3.00;2.63;;;10.70;73.40;;;;;;5065547;28;20423;-47
2022/04/16 02:48:04;;;;;;;2.70;2.50;;;10.70;73.70;;;;;;5029801;28;20777;-47
2022/04/16 02:50:31;;;;;;;3.30;3.00;;;10.60;73.50;;;;;;5068380;28;20436;-46
2022/04/16 02:52:58;;;;;;;3.10;2.80;;;10.60;73.60;;;;;;5068195;28;20459;-47
2022/04/16 02:55:24;;;;;;;3.17;2.80;;;10.60;73.70;;;;;;5067287;28;20500;-47
2022/04/16 02:57:49;;;;;;;3.37;2.83;;;10.50;73.60;;;;;;5067669;28;20459;-47
2022/04/16 03:00:16;;;;;;;4.20;3.30;;;10.50;73.70;;;;;;5067676;28;20431;-46
2022/04/16 03:02:42;;;;;;;2.70;2.50;;;10.50;73.60;;;;;;5067684;28;20244;-47
2022/04/16 03:05:09;;;;;;;4.30;2.70;;;10.50;73.80;;;;;;5065925;28;20463;-46
2022/04/16 03:07:36;;;;;;;3.23;2.90;;;10.40;73.90;;;;;;5065102;28;20840;-46
2022/04/16 03:10:06;;;;;;;3.00;2.70;;;10.40;74.20;;;;;;5067124;28;20464;-46
2022/04/16 03:12:43;;;;;;;3.20;2.67;;;10.40;74.30;;;;;;5067140;28;20447;-47
2022/04/16 03:17:54;;;;;;;3.67;3.33;;;10.30;74.60;;;;;;5067059;28;20527;-48
2022/04/16 03:20:20;;;;;;;3.37;3.07;;;10.30;74.80;;;;;;5067634;28;20438;-48
2022/04/16 03:22:45;;;;;;;3.57;2.70;;;10.20;74.80;;;;;;5066712;28;20422;-48
2022/04/16 03:25:11;;;;;;;3.40;3.10;;;10.20;74.90;;;;;;5066849;28;20271;-48
2022/04/16 03:27:37;;;;;;;3.43;3.13;;;10.20;75.10;;;;;;5066626;28;20645;-48
2022/04/16 03:30:07;;;;;;;3.37;2.80;;;10.20;74.90;;;;;;5066249;28;20280;-48
2022/04/16 03:32:35;;;;;;;2.67;2.47;;;10.20;75.10;;;;;;5069352;28;20496;-48
2022/04/16 03:35:02;;;;;;;2.90;2.60;;;10.10;75.30;;;;;;5069179;28;20729;-47
2022/04/16 03:37:28;;;;;;;3.40;2.70;;;10.10;75.70;;;;;;5067910;28;20759;-45
2022/04/16 03:39:53;;;;;;;3.60;2.93;;;10.10;75.80;;;;;;5070287;28;20761;-48
2022/04/16 03:42:19;;;;;;;3.20;2.90;;;10.00;76.00;;;;;;5065267;28;20289;-48
2022/04/16 03:44:45;;;;;;;2.37;2.17;;;10.00;76.40;;;;;;5070503;28;20366;-48
2022/04/16 03:47:13;;;;;;;3.07;2.77;;;9.90;78.00;;;;;;5068500;28;20215;-47
2022/04/16 03:49:39;;;;;;;2.77;2.57;;;10.00;77.10;;;;;;5069008;28;20196;-48
2022/04/16 03:52:05;;;;;;;2.90;2.60;;;10.00;77.60;;;;;;5067894;28;20716;-48
2022/04/16 04:00:03;;;;;;;2.87;2.67;;;9.90;79.80;;;;;;5068946;28;20430;-47
2022/04/16 04:02:30;;;;;;;3.20;2.90;;;9.90;80.10;;;;;;5069509;28;20447;-47
2022/04/16 04:04:57;;;;;;;3.10;2.80;;;9.90;80.30;;;;;;5069918;28;20756;-48
2022/04/16 04:07:23;;;;;;;2.90;2.70;;;10.00;79.20;;;;;;5067441;28;20487;-48
2022/04/16 04:09:49;;;;;;;3.90;3.20;;;10.00;79.20;;;;;;5058025;28;20427;-47
2022/04/16 04:12:15;;;;;;;3.90;3.10;;;10.00;79.30;;;;;;5064968;28;20677;-47
2022/04/16 04:14:45;;;;;;;3.27;2.97;;;10.00;79.30;;;;;;5067656;28;20430;-48
2022/04/16 04:17:11;;;;;;;3.57;3.27;;;10.00;79.50;;;;;;5070646;28;20493;-48
2022/04/16 04:19:41;;;;;;;3.20;2.93;;;10.00;79.50;;;;;;5068395;28;20438;-47
2022/04/16 04:22:09;;;;;;;4.40;3.17;;;10.00;79.70;;;;;;5069463;28;20656;-48
2022/04/16 04:24:37;;;;;;;3.47;3.17;;;10.00;79.50;;;;;;5052974;28;20432;-48
2022/04/16 04:27:02;;;;;;;4.10;3.23;;;10.00;79.80;;;;;;5067277;28;20498;-47
2022/04/16 04:29:28;;;;;;;3.17;2.83;;;10.00;80.00;;;;;;5063303;28;20425;-48
2022/04/16 04:31:55;;;;;;;3.17;2.90;;;10.00;80.00;;;;;;5048740;28;20479;-48
2022/04/16 04:34:20;;;;;;;3.23;2.93;;;10.00;80.10;;;;;;5067167;28;20842;-48
2022/04/16 04:36:46;;;;;;;4.27;3.23;;;10.00;80.10;;;;;;5069193;28;20458;-47
2022/04/16 04:39:12;;;;;;;3.47;3.17;;;10.00;80.10;;;;;;5068723;28;20224;-48
2022/04/16 04:41:38;;;;;;;3.67;3.37;;;10.00;80.30;;;;;;5067136;28;20295;-48
2022/04/16 04:44:04;;;;;;;3.20;2.90;;;10.00;80.50;;;;;;5069400;28;20760;-47
2022/04/16 04:46:30;;;;;;;3.27;2.97;;;10.10;80.80;;;;;;5068055;28;20483;-48
2022/04/16 04:48:56;;;;;;;3.50;3.20;;;10.10;80.70;;;;;;5069243;28;20721;-46
2022/04/16 04:51:22;;;;;;;3.37;3.07;;;10.10;80.40;;;;;;5056454;28;20181;-46
2022/04/16 04:53:48;;;;;;;3.40;3.10;;;10.20;80.40;;;;;;5066366;28;20831;-46
2022/04/16 04:56:13;;;;;;;4.80;3.50;;;10.20;80.30;;;;;;5066488;28;20299;-46
2022/04/16 04:58:39;;;;;;;4.33;3.67;;;10.20;80.20;;;;;;5066935;28;20270;-46
2022/04/16 05:01:04;;;;;;;4.27;3.47;;;10.30;80.40;;;;;;5064961;28;20289;-46
2022/04/16 05:03:30;;;;;;;3.60;3.30;;;10.30;80.00;;;;;;5052014;28;20207;-46
2022/04/16 05:05:56;;;;;;;4.10;3.70;;;10.40;80.00;;;;;;5066927;28;20212;-46
2022/04/16 05:08:21;;;;;;;3.60;3.30;;;10.40;79.90;;;;;;5067638;28;20433;-46
2022/04/16 05:10:47;;;;;;;3.60;3.30;;;10.50;79.50;;;;;;5066313;28;20272;-46
2022/04/16 05:13:12;;;;;;;3.80;3.50;;;10.50;79.20;;;;;;5067203;28;20186;-45
2022/04/16 05:15:38;;;;;;;3.53;3.20;;;10.60;79.10;;;;;;5067100;28;20190;-46
2022/04/16 05:18:04;;;;;;;3.77;3.37;;;10.60;78.80;;;;;;5068367;28;20627;-47
2022/04/16 05:20:29;;;;;;;3.43;3.00;;;10.70;78.90;;;;;;5050732;28;20584;-46
2022/04/16 05:22:55;;;;;;;3.33;3.03;;;10.70;78.70;;;;;;5055991;28;20292;-47
2022/04/16 05:25:21;;;;;;;3.67;3.37;;;10.80;78.50;;;;;;5068333;28;20357;-46
2022/04/16 05:27:46;;;;;;;4.00;3.17;;;10.80;78.60;;;;;;5068966;28;20244;-46
2022/04/16 05:30:38;;;;;;;3.40;3.10;;;10.90;78.30;;;;;;5067686;28;20250;-46
2022/04/16 05:33:16;;;;;;;3.30;3.00;;;10.90;77.90;;;;;;5067179;28;20181;-46
2022/04/16 05:35:44;;;;;;;3.87;3.57;;;11.00;77.70;;;;;;5066252;28;20541;-46
2022/04/16 05:38:10;;;;;;;4.37;3.97;;;11.10;77.70;;;;;;5066730;28;20900;-47
2022/04/16 05:40:35;;;;;;;3.80;3.50;;;11.10;77.40;;;;;;5066819;28;20433;-46
2022/04/16 05:43:01;;;;;;;4.90;3.53;;;11.20;77.30;;;;;;5068278;28;20417;-46
2022/04/16 05:45:27;;;;;;;4.20;3.30;;;11.30;77.30;;;;;;5065276;28;20196;-46
2022/04/16 05:47:52;;;;;;;4.07;3.30;;;11.30;76.80;;;;;;5063204;28;20225;-46
2022/04/16 05:50:20;;;;;;;3.90;3.50;;;11.40;76.80;;;;;;5063280;28;20869;-46
2022/04/16 05:52:45;;;;;;;3.80;3.50;;;11.50;76.70;;;;;;5063079;28;20261;-47
2022/04/16 05:55:11;;;;;;;4.13;3.73;;;11.50;76.60;;;;;;5058479;28;20435;-45
2022/04/16 05:57:37;;;;;;;3.43;3.13;;;11.60;76.50;;;;;;5064234;28;20191;-46
2022/04/16 06:00:04;;;;;;;4.43;3.57;;;11.60;76.10;;;;;;5065569;28;20185;-46
2022/04/16 06:02:31;;;;;;;3.80;3.50;;;11.70;76.00;;;;;;5064793;28;20501;-47
2022/04/16 06:04:57;;;;;;;4.10;3.70;;;11.80;75.80;;;;;;5064135;28;20553;-47
2022/04/16 06:07:23;;;;;;;3.30;3.00;;;11.80;75.60;;;;;;5063643;28;20811;-47
2022/04/16 06:09:48;;;;;;;4.37;3.97;;;11.90;75.30;;;;;;5064048;28;20179;-46
2022/04/16 06:12:14;;;;;;;4.30;3.90;;;12.00;74.80;;;;;;5054636;28;20191;-47
2022/04/16 06:14:40;;;;;;;3.80;3.50;;;12.00;74.40;;;;;;5060971;28;20190;-47
2022/04/16 06:17:06;;;;;;;4.10;3.60;;;12.10;74.40;;;;;;5058869;28;20189;-47
2022/04/16 06:19:31;;;;;;;4.17;3.77;;;12.20;74.00;;;;;;5062661;28;20432;-47
2022/04/16 06:21:57;;;;;;;3.70;3.37;;;12.30;73.80;;;;;;5065283;28;20669;-47
2022/04/16 06:24:22;;;;;;;4.60;4.00;;;12.40;74.20;;;;;;5063616;28;20622;-47
2022/04/16 06:26:49;;;;;;;3.60;3.30;;;12.40;73.60;;;;;;5065554;28;20668;-47
2022/04/16 06:29:15;;;;;;;4.10;3.70;;;12.50;72.90;;;;;;5066395;28;20216;-48
2022/04/16 06:31:41;;;;;;;3.87;3.47;;;12.60;72.30;;;;;;5063539;28;20456;-48
2022/04/16 06:34:06;;;;;;;3.73;3.43;;;12.60;72.10;;;;;;5063293;28;20190;-47
2022/04/16 06:36:32;;;;;;;3.93;3.50;;;12.60;72.00;;;;;;5063881;28;20196;-47
2022/04/16 06:38:57;;;;;;;3.70;3.30;;;12.70;71.40;;;;;;5062933;28;20821;-47
2022/04/16 06:41:23;;;;;;;4.57;4.10;;;12.70;70.80;;;;;;5067022;28;20206;-47
2022/04/16 06:43:49;;;;;;;4.30;3.90;;;12.70;70.70;;;;;;5051397;28;20196;-47
2022/04/16 06:46:14;;;;;;;4.77;4.30;;;12.70;70.40;;;;;;5062400;28;20185;-47
2022/04/16 06:48:40;;;;;;;3.67;3.37;;;12.80;70.10;;;;;;5063188;28;20719;-47
2022/04/16 06:51:06;;;;;;;3.83;3.50;;;12.80;69.60;;;;;;5061869;28;20351;-47
2022/04/16 06:53:31;;;;;;;3.97;3.57;;;12.80;69.50;;;;;;5061714;28;20436;-47
2022/04/16 06:56:00;;;;;;;4.33;3.43;;;12.80;68.60;;;;;;5063217;28;20646;-47
2022/04/16 06:58:28;;;;;;;4.53;4.13;;;12.80;68.20;;;;;;5064528;28;20189;-47
2022/04/16 07:00:55;;;;;;;4.57;4.07;;;12.90;68.20;;;;;;5044075;28;20432;-47
2022/04/16 07:03:20;;;;;;;3.83;3.40;;;12.90;68.50;;;;;;5064855;28;20422;-45
2022/04/16 07:05:46;;;;;;;3.70;3.40;;;12.90;68.30;;;;;;5064001;28;20836;-45
2022/04/16 07:08:12;;;;;;;4.30;3.90;;;13.00;68.40;;;;;;5066354;28;20304;-45
2022/04/16 07:10:39;;;;;;;4.93;4.17;;;13.00;67.70;;;;;;5067587;28;20221;-47
2022/04/16 07:13:05;;;;;;;4.60;3.83;;;13.00;67.10;;;;;;5065825;28;20190;-45
2022/04/16 07:15:33;;;;;;;3.83;3.47;;;13.10;66.00;;;;;;5064427;28;20657;-45
2022/04/16 07:17:59;;;;;;;3.87;3.37;;;13.10;66.50;;;;;;5063462;28;20905;-45
2022/04/16 07:20:24;;;;;;;4.53;3.73;;;13.10;66.20;;;;;;5063295;28;20521;-45
2022/04/16 07:22:50;;;;;;;3.23;2.93;;;13.10;65.90;;;;;;5063363;28;20200;-44
2022/04/16 07:25:16;;;;;;;4.17;3.50;;;13.10;65.50;;;;;;5065350;28;20295;-45
2022/04/16 07:27:43;;;;;;;5.63;3.83;;;13.20;65.80;;;;;;5067992;28;20247;-44
2022/04/16 07:30:13;;;;;;;5.10;4.37;;;13.20;65.40;;;;;;5068513;28;20193;-45
2022/04/16 07:32:39;;;;;;;4.63;4.23;;;13.30;65.30;;;;;;5065241;28;20524;-46
2022/04/16 07:35:05;;;;;;;4.37;3.97;;;13.30;65.00;;;;;;5067078;28;20636;-47
2022/04/16 07:37:31;;;;;;;4.83;4.33;;;13.40;64.70;;;;;;5066322;28;20447;-47
2022/04/16 07:39:56;;;;;;;4.33;3.93;;;13.40;64.30;;;;;;5067249;28;20590;-45
2022/04/16 07:42:26;;;;;;;3.77;3.33;;;13.50;64.00;;;;;;5065006;28;20194;-45
2022/04/16 07:44:52;;;;;;;4.87;4.40;;;13.50;64.00;;;;;;5059807;28;20283;-45
2022/04/16 07:47:19;;;;;;;4.77;4.20;;;13.60;63.80;;;;;;5056158;28;20491;-44
2022/04/16 07:49:44;;;;;;;4.40;4.00;;;13.60;63.40;;;;;;5063635;28;20913;-45
2022/04/16 07:52:10;;;;;;;5.77;4.87;;;13.70;63.00;;;;;;5061452;28;20471;-44
2022/04/16 07:54:37;;;;;;;5.17;4.67;;;13.70;62.70;;;;;;5055267;28;20272;-44
2022/04/16 07:57:06;;;;;;;5.17;4.70;;;13.80;63.00;;;;;;5063885;28;20196;-46
2022/04/16 07:59:32;;;;;;;4.83;4.00;;;13.80;62.80;;;;;;5054487;28;20838;-46
2022/04/16 08:01:58;;;;;;;4.50;4.10;;;13.90;62.70;;;;;;5052097;28;20435;-46
2022/04/16 08:04:24;;;;;;;7.40;4.83;;;14.10;62.60;;;;;;5066996;28;20710;-48
2022/04/16 08:06:50;;;;;;;5.20;4.57;;;14.10;61.90;;;;;;5064799;28;20437;-46
2022/04/16 08:09:19;;;;;;;5.40;4.80;;;14.20;61.50;;;;;;5060131;28;20592;-47
2022/04/16 08:11:46;;;;;;;5.37;4.87;;;14.20;61.30;;;;;;5058018;28;20424;-43
2022/04/16 08:14:12;;;;;;;5.77;5.07;;;14.20;61.10;;;;;;5064543;28;20435;-46
2022/04/16 08:16:38;;;;;;;6.57;5.17;;;14.30;61.80;;;;;;5063162;28;20529;-46
2022/04/16 08:19:04;;;;;;;6.07;5.47;;;14.30;61.30;;;;;;5065491;28;20439;-49
2022/04/16 08:21:31;;;;;;;6.30;5.70;;;14.40;61.40;;;;;;5063589;28;20189;-48
2022/04/16 08:24:04;;;;;;;5.20;4.70;;;14.40;61.10;;;;;;5065190;28;20182;-45
2022/04/16 08:26:33;;;;;;;7.53;5.73;;;14.50;61.20;;;;;;5064095;28;20502;-46
2022/04/16 08:28:59;;;;;;;5.83;3.93;;;14.50;61.30;;;;;;5066754;28;20615;-46
2022/04/16 08:31:24;;;;;;;5.20;4.70;;;14.70;61.10;;;;;;5065333;28;20688;-46
2022/04/16 08:33:50;;;;;;;6.17;5.57;;;14.80;60.80;;;;;;5065350;28;20438;-46
2022/04/16 08:36:15;;;;;;;5.80;5.30;;;14.90;60.40;;;;;;5065469;28;20226;-46
2022/04/16 08:38:42;;;;;;;6.07;5.43;;;15.10;60.00;;;;;;5064472;28;20568;-47
2022/04/16 08:41:10;;;;;;;4.33;3.93;;;15.20;59.70;;;;;;5066069;28;20226;-50
2022/04/16 08:43:37;;;;;;;3.90;3.00;;;15.40;65.90;;;;;;5051335;28;20428;-50
2022/04/16 08:46:04;;;;;;;16.23;9.10;;;15.90;74.80;;;;;;5062176;28;20433;-46
2022/04/16 08:48:32;;;;;;;31.33;17.00;;;16.40;75.80;;;;;;5064489;28;20426;-48
2022/04/16 08:50:58;;;;;;;31.47;17.33;;;16.90;74.50;;;;;;5065591;28;20433;-47
2022/04/16 08:53:24;;;;;;;25.90;14.27;;;17.30;72.60;;;;;;5065181;28;20416;-48
2022/04/16 08:55:49;;;;;;;14.93;9.83;;;17.70;70.80;;;;;;5065648;28;20729;-43
2022/04/16 08:58:15;;;;;;;13.63;8.50;;;18.00;69.30;;;;;;5061968;28;20444;-46
2022/04/16 09:00:41;;;;;;;17.80;8.33;;;18.30;65.80;;;;;;5062864;28;20673;-48
2022/04/16 09:03:09;;;;;;;11.73;6.73;;;18.60;65.00;;;;;;5065519;28;20464;-47
2022/04/16 09:05:35;;;;;;;10.03;6.73;;;18.80;63.70;;;;;;5061493;28;20192;-46
2022/04/16 09:08:03;;;;;;;6.53;5.07;;;18.90;61.90;;;;;;5063553;28;20480;-48
2022/04/16 09:10:29;;;;;;;8.27;6.13;;;19.10;60.10;;;;;;5063580;28;20684;-45
2022/04/16 09:12:57;;;;;;;7.33;5.03;;;19.40;60.00;;;;;;5063327;28;20505;-45
2022/04/16 09:15:24;;;;;;;5.93;4.70;;;19.70;58.70;;;;;;5062667;28;20435;-47
2022/04/16 09:18:01;;;;;;;9.90;5.30;;;20.00;57.50;;;;;;5050266;28;20918;-48
2022/04/16 09:20:37;;;;;;;8.13;5.03;;;20.40;57.00;;;;;;5058642;28;20437;-49
2022/04/16 09:23:20;;;;;;;7.60;4.63;;;20.80;56.30;;;;;;5059909;28;20556;-50
2022/04/16 09:25:46;;;;;;;5.97;4.30;;;21.10;54.70;;;;;;5060941;28;20443;-49
2022/04/16 09:28:14;;;;;;;4.40;3.77;;;21.20;54.00;;;;;;5059250;28;20547;-49
2022/04/16 09:30:57;;;;;;;3.70;3.30;;;21.20;53.50;;;;;;5059564;28;20924;-45
2022/04/16 09:33:22;;;;;;;4.57;3.83;;;21.10;53.30;;;;;;5060857;28;20632;-43
2022/04/16 09:35:53;;;;;;;6.80;4.33;;;20.90;53.10;;;;;;5059765;28;21041;-43
2022/04/16 09:38:19;;;;;;;7.27;4.00;;;20.70;53.30;;;;;;5061875;28;20207;-45
2022/04/16 09:40:48;;;;;;;5.03;4.50;;;20.40;53.00;;;;;;5063495;28;20504;-46
2022/04/16 09:43:14;;;;;;;3.93;3.50;;;20.20;53.30;;;;;;5062316;28;20195;-46
2022/04/16 09:45:40;;;;;;;4.60;3.90;;;20.10;53.40;;;;;;5062660;28;20469;-46
2022/04/16 09:48:13;;;;;;;4.93;3.50;;;19.90;54.20;;;;;;5065152;28;20797;-45
2022/04/16 09:50:41;;;;;;;5.67;3.73;;;19.80;54.50;;;;;;5064155;28;20586;-45
2022/04/16 09:53:07;;;;;;;3.80;3.50;;;19.80;54.70;;;;;;5064120;28;20501;-44
2022/04/16 09:55:33;;;;;;;5.27;3.93;;;19.60;54.20;;;;;;5063488;28;20434;-44
2022/04/16 09:58:03;;;;;;;5.33;4.10;;;19.60;54.20;;;;;;5061851;28;20195;-45
2022/04/16 10:00:31;;;;;;;4.63;3.90;;;19.50;54.30;;;;;;5052412;28;20768;-44
2022/04/16 10:02:57;;;;;;;4.17;3.53;;;19.50;54.30;;;;;;5060133;28;21271;-45
2022/04/16 10:05:23;;;;;;;3.77;3.47;;;19.60;54.50;;;;;;5059351;28;20450;-45
2022/04/16 10:07:49;;;;;;;4.30;3.80;;;19.60;54.30;;;;;;5062571;28;20250;-46
2022/04/16 10:10:18;;;;;;;5.10;4.60;;;19.60;53.80;;;;;;5051875;28;20920;-47
2022/04/16 10:13:01;;;;;;;5.00;4.50;;;19.40;53.60;;;;;;5060491;28;20427;-46
2022/04/16 10:15:51;;;;;;;4.90;4.50;;;19.40;53.90;;;;;;5060410;28;20536;-44
2022/04/16 10:18:16;;;;;;;4.33;3.93;;;19.40;54.10;;;;;;5063553;28;20431;-44
2022/04/16 10:20:58;;;;;;;4.87;4.47;;;19.40;53.90;;;;;;5064026;28;20443;-45
2022/04/16 10:23:25;;;;;;;5.57;4.93;;;19.40;53.10;;;;;;5064419;28;20282;-45
2022/04/16 10:25:52;;;;;;;4.47;4.03;;;19.30;53.30;;;;;;5053476;28;20408;-44
2022/04/16 10:28:23;;;;;;;5.13;4.70;;;19.20;53.40;;;;;;5062806;28;20586;-46
2022/04/16 10:30:55;;;;;;;4.60;4.20;;;19.20;53.30;;;;;;5067528;28;20429;-44
2022/04/16 10:33:22;;;;;;;4.87;4.47;;;19.20;53.20;;;;;;5065454;28;20615;-44
2022/04/16 10:35:49;;;;;;;5.73;4.67;;;19.40;53.00;;;;;;5065939;28;20420;-46
2022/04/16 10:38:45;;;;;;;4.30;3.90;;;19.60;52.60;;;;;;5058472;28;20521;-58
2022/04/16 10:41:13;;;;;;;4.70;4.20;;;19.80;52.70;;;;;;5065033;28;20431;-48
2022/04/16 10:43:39;;;;;;;5.37;4.47;;;20.20;52.30;;;;;;5068412;28;20422;-45
2022/04/16 10:46:06;;;;;;;6.10;5.50;;;20.60;51.20;;;;;;5069324;28;20792;-45
2022/04/16 10:48:36;;;;;;;5.53;4.40;;;20.70;49.10;;;;;;5069427;28;20497;-45
2022/04/16 10:51:03;;;;;;;5.30;4.90;;;20.80;48.20;;;;;;5070591;28;20421;-45
2022/04/16 10:53:34;;;;;;;5.10;4.60;;;20.70;47.00;;;;;;5071408;28;20973;-47
2022/04/16 10:56:22;;;;;;;5.20;4.70;;;20.70;46.80;;;;;;5070251;28;20494;-46
2022/04/16 10:59:00;;;;;;;4.93;4.43;;;20.70;46.60;;;;;;5068038;28;20506;-47
2022/04/16 11:01:29;;;;;;;4.53;4.13;;;20.80;45.90;;;;;;5068841;28;20526;-45
2022/04/16 11:03:55;;;;;;;4.97;4.47;;;21.00;45.60;;;;;;5068247;28;20710;-45
2022/04/16 11:06:33;;;;;;;4.97;4.50;;;21.00;45.40;;;;;;5069356;28;21029;-46
2022/04/16 11:09:00;;;;;;;5.30;4.80;;;21.10;45.00;;;;;;5068780;28;20629;-45
2022/04/16 11:11:26;;;;;;;5.20;4.70;;;21.20;44.50;;;;;;5070330;28;20924;-47
2022/04/16 11:13:52;;;;;;;5.50;5.00;;;21.10;44.00;;;;;;5069699;28;20433;-46
2022/04/16 11:16:23;;;;;;;6.00;5.40;;;21.00;43.80;;;;;;5068621;28;20180;-48
2022/04/16 11:18:51;;;;;;;5.30;4.80;;;20.90;43.80;;;;;;5066179;28;20445;-45
2022/04/16 11:21:25;;;;;;;5.70;5.20;;;20.90;43.80;;;;;;5056248;28;20436;-44
2022/04/16 11:23:53;;;;;;;7.00;6.30;;;20.90;43.90;;;;;;5069829;28;20429;-44
2022/04/16 11:34:42;;;;;;;5.93;5.43;;;22.50;43.20;;;;;;5070430;28;20414;-44
2022/04/16 11:37:08;;;;;;;7.10;5.80;;;22.90;42.30;;;;;;5061097;28;20777;-46
2022/04/16 11:39:35;;;;;;;4.90;4.43;;;22.90;41.80;;;;;;5045780;28;20210;-47
2022/04/16 11:42:06;;;;;;;6.03;5.43;;;22.80;41.60;;;;;;5066820;28;20441;-45
2022/04/16 11:44:43;;;;;;;4.13;3.83;;;22.70;41.50;;;;;;5048349;28;20498;-47
2022/04/16 11:47:13;;;;;;;4.77;4.27;;;22.60;41.60;;;;;;5068008;28;20939;-45
2022/04/16 11:49:49;;;;;;;5.23;4.73;;;22.50;41.50;;;;;;5068579;28;20445;-48
2022/04/16 11:52:14;;;;;;;5.70;5.20;;;22.40;41.30;;;;;;5064160;28;20554;-46
2022/04/16 11:54:40;;;;;;;5.60;5.10;;;22.20;41.10;;;;;;5064094;28;20774;-47
2022/04/16 11:57:07;;;;;;;5.37;4.87;;;22.00;41.10;;;;;;5062734;28;20179;-52
2022/04/16 11:59:33;;;;;;;4.90;4.40;;;21.90;41.10;;;;;;5060923;28;20440;-46
2022/04/16 12:02:07;;;;;;;5.33;4.83;;;21.80;41.10;;;;;;5048901;28;20660;-46
2022/04/16 12:04:43;;;;;;;5.70;5.20;;;21.70;41.20;;;;;;5063793;28;20428;-49
2022/04/16 12:07:13;;;;;;;4.67;4.27;;;21.50;41.10;;;;;;5063112;28;20470;-45
2022/04/16 12:09:49;;;;;;;4.90;4.50;;;21.60;41.10;;;;;;5065111;28;20784;-47
2022/04/16 12:12:20;;;;;;;5.50;5.00;;;21.70;40.80;;;;;;5060956;28;20436;-44
2022/04/16 12:14:52;;;;;;;6.00;4.17;;;21.60;40.30;;;;;;5063822;28;20446;-45
2022/04/16 12:17:39;;;;;;;4.50;4.10;;;21.90;40.50;;;;;;5065075;28;20458;-47
2022/04/16 12:20:07;;;;;;;4.50;4.10;;;22.00;40.10;;;;;;5063775;28;20618;-46
2022/04/16 12:22:55;;;;;;;5.50;5.00;;;22.00;39.90;;;;;;5060368;28;20514;-45
2022/04/16 12:25:22;;;;;;;5.60;5.10;;;22.10;39.80;;;;;;5065724;28;20497;-45
2022/04/16 12:27:53;;;;;;;5.07;4.63;;;22.30;39.40;;;;;;5061869;28;20484;-47
2022/04/16 12:30:20;;;;;;;4.40;4.00;;;22.40;39.10;;;;;;5064540;28;20425;-45
2022/04/16 12:32:59;;;;;;;4.40;4.10;;;22.30;39.20;;;;;;5065434;28;20430;-45
2022/04/16 12:35:29;;;;;;;4.43;4.03;;;22.50;39.30;;;;;;5064516;28;20526;-47
2022/04/16 12:37:56;;;;;;;5.00;4.60;;;23.00;39.40;;;;;;5060801;28;20435;-46
2022/04/16 12:40:23;;;;;;;5.70;4.77;;;23.20;38.80;;;;;;5050980;28;20430;-49
2022/04/16 12:42:49;;;;;;;5.33;4.80;;;23.60;38.90;;;;;;5060712;28;20437;-46
2022/04/16 12:45:15;;;;;;;4.83;4.43;;;24.00;38.40;;;;;;5060469;28;20457;-44
2022/04/16 12:47:41;;;;;;;4.83;4.43;;;24.30;38.10;;;;;;5056050;28;20595;-48
2022/04/16 12:50:08;;;;;;;4.80;4.40;;;24.70;37.70;;;;;;5062748;28;20650;-47
2022/04/16 12:52:34;;;;;;;5.27;4.77;;;24.90;37.20;;;;;;5063246;28;20190;-44
2022/04/16 12:55:00;;;;;;;4.30;4.00;;;24.80;36.90;;;;;;5055650;28;20462;-45
2022/04/16 12:57:26;;;;;;;4.50;4.10;;;25.20;36.80;;;;;;5058055;28;20302;-48
2022/04/16 12:59:51;;;;;;;4.97;4.57;;;25.90;36.00;;;;;;5063644;28;20635;-48
2022/04/16 13:02:17;;;;;;;5.60;5.00;;;26.80;34.80;;;;;;5065170;28;20423;-45
2022/04/16 13:04:42;;;;;;;4.70;4.30;;;27.50;34.00;;;;;;5063084;28;20474;-45
2022/04/16 13:07:08;;;;;;;5.40;4.90;;;28.20;33.40;;;;;;5066084;28;20238;-44